sensor_id;sensor_type;location;lat;lon;timestamp;temperature;humidity
752;DHT22;360;48.764;9.164;2023-08-21T06:14:51;28.10;1.00
752;DHT22;360;48.764;9.164;2023-08-21T06:17:19;23.30;99.90
752;DHT22;360;48.764;9.164;2023-08-21T06:19:46;23.30;99.90
752;DHT22;360;48.764;9.164;2023-08-21T06:22:13;23.50;81.10
752;DHT22;360;48.764;9.164;2023-08-21T06:24:40;23.50;1.00
752;DHT22;360;48.764;9.164;2023-08-21T06:27:07;23.60;99.90
752;DHT22;360;48.764;9.164;2023-08-21T06:29:34;23.80;99.90
752;DHT22;360;48.764;9.164;2023-08-21T06:32:01;23.90;99.90
752;DHT22;360;48.764;9.164;2023-08-21T06:34:30;23.90;99.90
752;DHT22;360;48.764;9.164;2023-08-21T06:36:56;24.00;1.00
752;DHT22;360;48.764;9.164;2023-08-21T06:39:23;24.00;1.00
752;DHT22;360;48.764;9.164;2023-08-21T06:41:50;24.10;91.30
752;DHT22;360;48.764;9.164;2023-08-21T06:44:17;24.20;99.90
752;DHT22;360;48.764;9.164;2023-08-21T06:46:44;24.30;1.00
752;DHT22;360;48.764;9.164;2023-08-21T06:49:11;24.30;99.90
752;DHT22;360;48.764;9.164;2023-08-21T06:51:39;24.40;99.90
752;DHT22;360;48.764;9.164;2023-08-21T06:54:06;24.50;1.00
752;DHT22;360;48.764;9.164;2023-08-21T06:56:32;24.50;99.90
752;DHT22;360;48.764;9.164;2023-08-21T06:58:59;24.60;99.90
752;DHT22;360;48.764;9.164;2023-08-21T07:01:27;24.70;99.90
752;DHT22;360;48.764;9.164;2023-08-21T07:03:54;24.80;98.10
752;DHT22;360;48.764;9.164;2023-08-21T07:06:20;24.80;1.00
752;DHT22;360;48.764;9.164;2023-08-21T07:08:49;24.90;1.00
752;DHT22;360;48.764;9.164;2023-08-21T07:11:15;25.00;1.00
752;DHT22;360;48.764;9.164;2023-08-21T07:13:43;25.10;99.90
752;DHT22;360;48.764;9.164;2023-08-21T07:16:10;25.20;99.90
752;DHT22;360;48.764;9.164;2023-08-21T07:18:37;25.20;99.90
752;DHT22;360;48.764;9.164;2023-08-21T07:21:04;25.30;99.90
752;DHT22;360;48.764;9.164;2023-08-21T07:23:31;25.40;99.90
752;DHT22;360;48.764;9.164;2023-08-21T07:26:01;25.50;99.90
752;DHT22;360;48.764;9.164;2023-08-21T07:28:30;25.50;99.90
752;DHT22;360;48.764;9.164;2023-08-21T07:30:57;25.60;60.70
752;DHT22;360;48.764;9.164;2023-08-21T07:33:25;25.70;1.00
752;DHT22;360;48.764;9.164;2023-08-21T07:36:00;25.80;1.00
752;DHT22;360;48.764;9.164;2023-08-21T07:38:27;25.90;1.00
752;DHT22;360;48.764;9.164;2023-08-21T07:41:03;25.90;1.00
752;DHT22;360;48.764;9.164;2023-08-21T07:43:31;26.00;1.00
752;DHT22;360;48.764;9.164;2023-08-21T07:45:57;26.00;1.00
752;DHT22;360;48.764;9.164;2023-08-21T07:48:24;26.10;1.00
752;DHT22;360;48.764;9.164;2023-08-21T07:50:51;26.20;1.00
752;DHT22;360;48.764;9.164;2023-08-21T07:53:19;26.30;1.00
752;DHT22;360;48.764;9.164;2023-08-21T07:55:46;26.40;1.00
752;DHT22;360;48.764;9.164;2023-08-21T07:58:14;26.40;1.00
752;DHT22;360;48.764;9.164;2023-08-21T08:00:41;26.50;1.00
752;DHT22;360;48.764;9.164;2023-08-21T08:03:09;26.60;1.00
752;DHT22;360;48.764;9.164;2023-08-21T08:05:36;26.80;1.00
752;DHT22;360;48.764;9.164;2023-08-21T08:08:04;26.80;99.90
752;DHT22;360;48.764;9.164;2023-08-21T08:10:31;26.90;99.90
752;DHT22;360;48.764;9.164;2023-08-21T08:12:58;27.00;99.90
752;DHT22;360;48.764;9.164;2023-08-21T08:15:26;27.00;99.90
752;DHT22;360;48.764;9.164;2023-08-21T08:17:54;27.00;99.90
752;DHT22;360;48.764;9.164;2023-08-21T08:20:21;27.10;99.90
752;DHT22;360;48.764;9.164;2023-08-21T08:22:47;27.20;99.90
752;DHT22;360;48.764;9.164;2023-08-21T08:25:14;27.40;99.90
752;DHT22;360;48.764;9.164;2023-08-21T08:27:41;27.50;99.90
752;DHT22;360;48.764;9.164;2023-08-21T08:30:08;27.50;99.90
752;DHT22;360;48.764;9.164;2023-08-21T08:32:38;27.60;99.90
752;DHT22;360;48.764;9.164;2023-08-21T08:35:06;27.90;99.90
752;DHT22;360;48.764;9.164;2023-08-21T08:37:33;27.90;99.90
752;DHT22;360;48.764;9.164;2023-08-21T08:40:00;28.00;99.90
752;DHT22;360;48.764;9.164;2023-08-21T08:42:27;28.00;99.90
752;DHT22;360;48.764;9.164;2023-08-21T08:44:54;28.00;99.90
752;DHT22;360;48.764;9.164;2023-08-21T08:47:22;28.00;99.90
752;DHT22;360;48.764;9.164;2023-08-21T08:49:53;28.00;99.90
752;DHT22;360;48.764;9.164;2023-08-21T08:52:21;28.00;99.90
752;DHT22;360;48.764;9.164;2023-08-21T08:54:49;28.20;99.90
752;DHT22;360;48.764;9.164;2023-08-21T08:57:16;28.20;99.90
752;DHT22;360;48.764;9.164;2023-08-21T08:59:42;28.30;99.90
752;DHT22;360;48.764;9.164;2023-08-21T09:02:09;28.40;99.90
752;DHT22;360;48.764;9.164;2023-08-21T09:04:36;28.40;99.90
752;DHT22;360;48.764;9.164;2023-08-21T09:07:07;28.50;99.90
752;DHT22;360;48.764;9.164;2023-08-21T09:09:38;28.60;99.90
752;DHT22;360;48.764;9.164;2023-08-21T09:12:10;28.70;99.90
752;DHT22;360;48.764;9.164;2023-08-21T09:14:39;28.70;99.90
752;DHT22;360;48.764;9.164;2023-08-21T09:17:06;28.70;99.90
752;DHT22;360;48.764;9.164;2023-08-21T09:19:33;28.70;99.90
752;DHT22;360;48.764;9.164;2023-08-21T09:22:09;28.80;99.90
752;DHT22;360;48.764;9.164;2023-08-21T09:24:37;28.70;99.90
752;DHT22;360;48.764;9.164;2023-08-21T09:27:04;28.90;99.90
752;DHT22;360;48.764;9.164;2023-08-21T09:29:38;28.90;99.90
752;DHT22;360;48.764;9.164;2023-08-21T09:32:06;28.90;99.90
752;DHT22;360;48.764;9.164;2023-08-21T09:34:36;28.70;99.90
752;DHT22;360;48.764;9.164;2023-08-21T09:37:05;28.80;99.90
752;DHT22;360;48.764;9.164;2023-08-21T09:39:35;29.00;99.90
752;DHT22;360;48.764;9.164;2023-08-21T09:42:05;29.10;99.90
752;DHT22;360;48.764;9.164;2023-08-21T09:44:37;29.30;99.90
752;DHT22;360;48.764;9.164;2023-08-21T09:47:07;29.30;99.90
752;DHT22;360;48.764;9.164;2023-08-21T09:49:34;29.40;99.90
752;DHT22;360;48.764;9.164;2023-08-21T09:52:03;29.50;99.90
752;DHT22;360;48.764;9.164;2023-08-21T09:54:31;29.70;99.90
752;DHT22;360;48.764;9.164;2023-08-21T09:57:02;29.70;99.90
752;DHT22;360;48.764;9.164;2023-08-21T09:59:29;29.70;99.90
752;DHT22;360;48.764;9.164;2023-08-21T10:01:58;29.90;99.90
752;DHT22;360;48.764;9.164;2023-08-21T10:04:25;29.90;99.90
752;DHT22;360;48.764;9.164;2023-08-21T10:06:54;30.10;98.80
752;DHT22;360;48.764;9.164;2023-08-21T10:09:23;30.20;94.60
752;DHT22;360;48.764;9.164;2023-08-21T10:11:52;30.20;89.50
752;DHT22;360;48.764;9.164;2023-08-21T10:14:21;30.30;94.70
752;DHT22;360;48.764;9.164;2023-08-21T10:16:49;30.30;77.50
752;DHT22;360;48.764;9.164;2023-08-21T10:19:17;30.30;73.30
752;DHT22;360;48.764;9.164;2023-08-21T10:21:46;30.50;61.60
752;DHT22;360;48.764;9.164;2023-08-21T10:24:26;30.60;61.60
752;DHT22;360;48.764;9.164;2023-08-21T10:26:52;30.80;57.50
752;DHT22;360;48.764;9.164;2023-08-21T10:29:22;30.70;57.20
752;DHT22;360;48.764;9.164;2023-08-21T10:31:58;30.80;52.80
752;DHT22;360;48.764;9.164;2023-08-21T10:34:32;30.90;51.30
752;DHT22;360;48.764;9.164;2023-08-21T10:37:07;31.20;44.40
752;DHT22;360;48.764;9.164;2023-08-21T10:39:35;31.30;41.30
752;DHT22;360;48.764;9.164;2023-08-21T10:42:05;31.20;38.00
752;DHT22;360;48.764;9.164;2023-08-21T10:44:52;31.20;35.80
752;DHT22;360;48.764;9.164;2023-08-21T10:47:22;31.50;30.70
752;DHT22;360;48.764;9.164;2023-08-21T10:49:52;31.30;29.60
752;DHT22;360;48.764;9.164;2023-08-21T10:52:23;31.10;26.70
752;DHT22;360;48.764;9.164;2023-08-21T10:54:51;31.50;23.50
752;DHT22;360;48.764;9.164;2023-08-21T10:57:18;31.70;19.10
752;DHT22;360;48.764;9.164;2023-08-21T10:59:54;31.60;17.30
752;DHT22;360;48.764;9.164;2023-08-21T11:02:22;31.70;15.60
752;DHT22;360;48.764;9.164;2023-08-21T11:04:49;32.00;13.90
752;DHT22;360;48.764;9.164;2023-08-21T11:07:16;32.00;10.60
752;DHT22;360;48.764;9.164;2023-08-21T11:09:43;31.90;9.90
752;DHT22;360;48.764;9.164;2023-08-21T11:12:12;32.10;8.10
752;DHT22;360;48.764;9.164;2023-08-21T11:14:39;32.30;4.80
752;DHT22;360;48.764;9.164;2023-08-21T11:17:08;32.30;3.50
752;DHT22;360;48.764;9.164;2023-08-21T11:19:38;32.20;7.60
752;DHT22;360;48.764;9.164;2023-08-21T11:22:05;32.30;2.70
752;DHT22;360;48.764;9.164;2023-08-21T11:24:40;32.70;1.00
752;DHT22;360;48.764;9.164;2023-08-21T11:27:08;32.50;1.00
752;DHT22;360;48.764;9.164;2023-08-21T11:29:39;32.60;1.00
752;DHT22;360;48.764;9.164;2023-08-21T11:32:12;32.80;1.00
752;DHT22;360;48.764;9.164;2023-08-21T11:34:40;32.80;1.00
752;DHT22;360;48.764;9.164;2023-08-21T11:37:08;32.70;1.00
752;DHT22;360;48.764;9.164;2023-08-21T11:39:40;32.90;1.00
752;DHT22;360;48.764;9.164;2023-08-21T11:42:09;33.00;1.00
752;DHT22;360;48.764;9.164;2023-08-21T11:44:40;33.20;1.00
752;DHT22;360;48.764;9.164;2023-08-21T11:47:07;33.60;1.00
752;DHT22;360;48.764;9.164;2023-08-21T11:49:37;33.70;1.00
752;DHT22;360;48.764;9.164;2023-08-21T11:52:07;33.20;1.00
752;DHT22;360;48.764;9.164;2023-08-21T11:54:34;33.20;1.00
752;DHT22;360;48.764;9.164;2023-08-21T11:57:04;33.30;1.00
752;DHT22;360;48.764;9.164;2023-08-21T11:59:31;33.40;1.00
752;DHT22;360;48.764;9.164;2023-08-21T12:01:58;33.40;1.00
752;DHT22;360;48.764;9.164;2023-08-21T12:04:25;33.50;1.00
752;DHT22;360;48.764;9.164;2023-08-21T12:06:53;33.30;1.00
752;DHT22;360;48.764;9.164;2023-08-21T12:09:20;33.40;1.00
752;DHT22;360;48.764;9.164;2023-08-21T12:11:47;33.40;1.00
752;DHT22;360;48.764;9.164;2023-08-21T12:14:14;33.30;1.00
752;DHT22;360;48.764;9.164;2023-08-21T12:16:40;33.40;1.00
752;DHT22;360;48.764;9.164;2023-08-21T12:19:07;33.60;1.00
752;DHT22;360;48.764;9.164;2023-08-21T12:21:34;33.60;1.00
752;DHT22;360;48.764;9.164;2023-08-21T12:24:05;33.70;1.00
752;DHT22;360;48.764;9.164;2023-08-21T12:26:32;34.10;1.00
752;DHT22;360;48.764;9.164;2023-08-21T12:28:59;33.90;1.00
752;DHT22;360;48.764;9.164;2023-08-21T12:31:26;33.40;1.00
752;DHT22;360;48.764;9.164;2023-08-21T12:33:53;33.20;1.00
752;DHT22;360;48.764;9.164;2023-08-21T12:36:20;33.10;1.00
752;DHT22;360;48.764;9.164;2023-08-21T12:38:46;33.10;1.00
752;DHT22;360;48.764;9.164;2023-08-21T12:41:14;33.30;1.00
752;DHT22;360;48.764;9.164;2023-08-21T12:43:41;32.90;1.00
752;DHT22;360;48.764;9.164;2023-08-21T12:46:08;33.10;1.00
752;DHT22;360;48.764;9.164;2023-08-21T12:48:35;33.00;1.00
752;DHT22;360;48.764;9.164;2023-08-21T12:51:02;33.20;1.00
752;DHT22;360;48.764;9.164;2023-08-21T12:53:29;33.20;1.00
752;DHT22;360;48.764;9.164;2023-08-21T12:55:55;33.40;1.00
752;DHT22;360;48.764;9.164;2023-08-21T12:58:25;33.40;1.00
752;DHT22;360;48.764;9.164;2023-08-21T13:00:52;33.60;1.00
752;DHT22;360;48.764;9.164;2023-08-21T13:03:19;33.50;1.00
752;DHT22;360;48.764;9.164;2023-08-21T13:05:46;33.70;1.00
752;DHT22;360;48.764;9.164;2023-08-21T13:08:13;33.70;1.00
752;DHT22;360;48.764;9.164;2023-08-21T13:10:41;33.90;1.00
752;DHT22;360;48.764;9.164;2023-08-21T13:13:08;33.80;1.00
752;DHT22;360;48.764;9.164;2023-08-21T13:15:36;34.10;1.00
752;DHT22;360;48.764;9.164;2023-08-21T13:18:04;34.00;1.00
752;DHT22;360;48.764;9.164;2023-08-21T13:20:31;33.40;1.00
752;DHT22;360;48.764;9.164;2023-08-21T13:22:58;33.30;1.00
752;DHT22;360;48.764;9.164;2023-08-21T13:25:25;33.40;1.00
752;DHT22;360;48.764;9.164;2023-08-21T13:27:52;33.80;1.00
752;DHT22;360;48.764;9.164;2023-08-21T13:30:19;34.20;1.00
752;DHT22;360;48.764;9.164;2023-08-21T13:32:49;34.50;1.00
752;DHT22;360;48.764;9.164;2023-08-21T13:35:16;34.50;1.00
